Time;durP1;ratioP1;P1;durP2;ratioP2;P2;SDS_P1;SDS_P2;PMS_P1;PMS_P2;Temp;Humidity;BMP_temperature;BMP_pressure;BME280_temperature;BME280_humidity;BME280_pressure;Samples;Min_cycle;Max_cycle;Signal;HPM_P1;HPM_P2
2023/07/15 00:00:21;;;;;;;5.53;5.03;;;21.00;1.00;;;;;;5023531;28;20473;-79
2023/07/15 00:02:48;;;;;;;6.73;5.10;;;21.00;1.00;;;;;;5022775;28;20868;-79
2023/07/15 00:05:24;;;;;;;5.40;4.83;;;20.90;1.00;;;;;;5020510;28;20932;-78
2023/07/15 00:07:50;;;;;;;8.20;5.83;;;20.90;1.00;;;;;;5025074;28;20455;-79
2023/07/15 00:10:18;;;;;;;5.53;5.00;;;21.00;1.00;;;;;;5026135;28;20478;-79
2023/07/15 00:12:50;;;;;;;6.23;5.27;;;21.00;1.00;;;;;;5026854;28;20471;-78
2023/07/15 00:15:18;;;;;;;8.37;6.07;;;21.00;1.00;;;;;;5016812;28;20492;-79
2023/07/15 00:17:44;;;;;;;7.27;5.60;;;21.00;1.00;;;;;;5034228;28;20456;-79
2023/07/15 00:20:14;;;;;;;7.43;5.57;;;21.00;1.00;;;;;;5027728;28;20469;-80
2023/07/15 00:22:44;;;;;;;5.43;4.93;;;21.00;1.00;;;;;;5019098;28;20465;-79
2023/07/15 00:25:15;;;;;;;8.50;5.23;;;21.00;1.00;;;;;;5026502;28;20943;-80
2023/07/15 00:27:42;;;;;;;5.00;4.60;;;21.10;1.00;;;;;;5028032;28;20467;-81
2023/07/15 00:30:10;;;;;;;5.60;5.20;;;21.10;1.00;;;;;;5025989;28;20582;-80
2023/07/15 00:32:38;;;;;;;5.07;4.77;;;21.10;1.00;;;;;;5026567;28;20494;-79
2023/07/15 00:35:18;;;;;;;5.80;5.30;;;21.10;1.00;;;;;;5026190;28;20449;-78
2023/07/15 00:37:48;;;;;;;7.33;6.20;;;21.10;1.00;;;;;;5027607;28;20546;-80
2023/07/15 00:40:17;;;;;;;7.70;6.60;;;21.20;1.00;;;;;;5024884;28;20500;-79
2023/07/15 00:43:21;;;;;;;5.67;5.17;;;21.10;1.00;;;;;;5026772;28;20485;-79
2023/07/15 00:46:26;;;;;;;6.07;5.50;;;21.20;1.00;;;;;;5024631;28;20961;-78
2023/07/15 00:49:00;;;;;;;5.40;5.00;;;21.10;1.00;;;;;;5024453;28;21088;-78
2023/07/15 00:51:29;;;;;;;5.30;4.90;;;20.90;1.00;;;;;;5029069;28;21006;-78
2023/07/15 00:53:56;;;;;;;5.23;4.80;;;20.90;1.00;;;;;;5023994;28;20507;-79
2023/07/15 00:56:26;;;;;;;5.10;4.70;;;20.90;1.00;;;;;;5027190;28;20476;-78
2023/07/15 00:58:53;;;;;;;5.50;5.00;;;20.90;1.00;;;;;;5027597;28;20459;-79
2023/07/15 01:01:22;;;;;;;5.00;4.60;;;20.70;1.00;;;;;;5025250;28;20914;-76
2023/07/15 01:03:54;;;;;;;4.93;4.53;;;20.70;1.00;;;;;;5023895;28;20458;-76
2023/07/15 01:06:22;;;;;;;6.40;5.77;;;20.80;1.00;;;;;;5028988;28;20450;-76
2023/07/15 01:11:17;;;;;;;5.47;5.03;;;20.60;1.00;;;;;;5035295;28;20465;-76
2023/07/15 01:13:44;;;;;;;6.87;6.07;;;20.60;1.00;;;;;;5038977;28;20449;-75
2023/07/15 01:16:12;;;;;;;6.27;5.43;;;20.60;1.00;;;;;;5033072;28;20479;-76
2023/07/15 01:18:42;;;;;;;5.07;4.67;;;20.50;1.00;;;;;;5032532;28;20488;-76
2023/07/15 01:21:11;;;;;;;5.80;5.30;;;20.50;1.00;;;;;;5035217;28;20472;-75
2023/07/15 01:23:40;;;;;;;6.10;5.60;;;20.40;1.00;;;;;;5028273;28;20563;-75
2023/07/15 01:26:07;;;;;;;6.43;4.93;;;20.40;1.00;;;;;;5028354;28;20487;-76
2023/07/15 01:28:36;;;;;;;5.60;5.13;;;20.40;1.00;;;;;;5017390;28;20510;-75
2023/07/15 01:31:03;;;;;;;6.33;5.70;;;20.40;1.00;;;;;;5022723;28;20499;-76
2023/07/15 01:33:30;;;;;;;5.70;4.80;;;20.30;1.00;;;;;;5029354;28;20457;-76
2023/07/15 01:35:57;;;;;;;6.17;5.57;;;20.30;1.00;;;;;;5033461;28;21307;-75
2023/07/15 01:38:25;;;;;;;6.07;5.50;;;20.20;1.00;;;;;;5030358;28;20464;-75
2023/07/15 01:40:53;;;;;;;6.23;5.63;;;20.20;1.00;;;;;;5024349;28;20466;-75
2023/07/15 01:43:20;;;;;;;5.47;5.03;;;20.20;1.00;;;;;;5029567;28;20459;-75
2023/07/15 01:45:47;;;;;;;9.23;6.20;;;20.10;1.00;;;;;;5036701;28;20536;-75
2023/07/15 01:48:15;;;;;;;5.97;5.30;;;20.00;1.00;;;;;;5037019;28;20952;-75
2023/07/15 01:50:43;;;;;;;6.13;5.53;;;20.10;1.00;;;;;;5036008;28;20481;-75
2023/07/15 01:53:10;;;;;;;5.73;5.27;;;20.00;1.00;;;;;;5037836;28;20532;-74
2023/07/15 01:55:37;;;;;;;9.60;6.80;;;20.00;1.00;;;;;;5034606;28;20527;-74
2023/07/15 01:58:05;;;;;;;6.97;6.33;;;20.00;1.00;;;;;;5036747;28;20567;-74
2023/07/15 02:00:33;;;;;;;5.67;5.17;;;19.90;1.00;;;;;;5023976;28;20569;-75
2023/07/15 02:02:59;;;;;;;5.87;5.43;;;19.90;1.00;;;;;;5038999;28;20988;-74
2023/07/15 02:05:27;;;;;;;5.63;5.13;;;19.90;1.00;;;;;;5037790;28;20922;-75
2023/07/15 02:07:55;;;;;;;5.70;5.20;;;19.90;1.00;;;;;;5041982;28;20491;-76
2023/07/15 02:10:22;;;;;;;6.63;6.13;;;19.90;1.00;;;;;;5041691;28;20573;-76
2023/07/15 02:12:50;;;;;;;5.57;5.17;;;19.80;1.00;;;;;;5037940;28;20476;-75
2023/07/15 02:15:19;;;;;;;7.33;5.73;;;19.80;1.00;;;;;;5041543;28;20650;-75
2023/07/15 02:17:46;;;;;;;6.77;5.60;;;19.70;1.00;;;;;;5038723;28;20454;-76
2023/07/15 02:20:13;;;;;;;5.63;5.13;;;19.70;1.00;;;;;;5037336;28;20559;-75
2023/07/15 02:22:41;;;;;;;6.80;6.20;;;19.70;1.00;;;;;;5035181;28;20442;-76
2023/07/15 02:25:09;;;;;;;6.10;5.53;;;19.70;1.00;;;;;;5033113;28;20568;-75
2023/07/15 02:27:37;;;;;;;9.97;6.47;;;19.70;1.00;;;;;;5036966;28;20471;-76
2023/07/15 02:30:09;;;;;;;6.00;5.20;;;19.60;1.00;;;;;;5037025;28;20478;-75
2023/07/15 02:32:40;;;;;;;6.60;5.43;;;19.50;1.00;;;;;;5042957;28;20428;-75
2023/07/15 02:35:12;;;;;;;6.07;5.67;;;19.50;1.00;;;;;;5037227;28;21709;-75
2023/07/15 02:37:41;;;;;;;7.57;6.97;;;19.50;1.00;;;;;;5039817;28;20599;-75
2023/07/15 02:40:10;;;;;;;5.97;5.47;;;19.40;1.00;;;;;;5037100;28;20480;-76
2023/07/15 02:42:37;;;;;;;7.57;5.80;;;19.40;1.00;;;;;;5033055;28;20603;-76
2023/07/15 02:45:06;;;;;;;6.33;5.83;;;19.40;1.00;;;;;;5036812;28;21330;-75
2023/07/15 02:47:34;;;;;;;6.00;5.40;;;19.30;1.00;;;;;;5040711;28;20470;-76
2023/07/15 02:50:04;;;;;;;6.03;5.60;;;19.30;1.00;;;;;;5037612;28;21936;-75
2023/07/15 02:52:32;;;;;;;6.77;6.17;;;19.30;1.00;;;;;;5036763;28;20550;-75
2023/07/15 02:55:01;;;;;;;6.03;5.50;;;19.20;1.00;;;;;;5036571;28;20467;-76
2023/07/15 02:57:28;;;;;;;6.10;5.50;;;19.10;1.00;;;;;;5036130;28;20468;-76
2023/07/15 02:59:55;;;;;;;6.40;5.87;;;19.10;1.00;;;;;;5035801;28;20505;-76
2023/07/15 03:02:23;;;;;;;5.67;5.17;;;19.10;1.00;;;;;;5040219;28;20914;-76
2023/07/15 03:04:50;;;;;;;8.00;6.33;;;19.10;1.00;;;;;;5038700;28;20549;-75
2023/07/15 03:07:20;;;;;;;8.20;7.23;;;19.10;1.00;;;;;;5041641;28;20894;-76
2023/07/15 03:09:47;;;;;;;6.63;6.03;;;19.00;1.00;;;;;;5042938;28;20462;-76
2023/07/15 03:12:14;;;;;;;6.63;6.07;;;19.00;1.00;;;;;;5037653;28;20457;-76
2023/07/15 03:14:44;;;;;;;8.13;5.70;;;19.00;1.00;;;;;;5041539;28;20469;-76
2023/07/15 03:17:11;;;;;;;6.30;5.70;;;19.00;1.00;;;;;;5041202;28;21057;-76
2023/07/15 03:19:40;;;;;;;9.00;6.43;;;19.00;1.00;;;;;;5039978;28;20442;-76
2023/07/15 03:22:07;;;;;;;6.27;5.67;;;18.90;1.00;;;;;;5039451;28;20427;-76
2023/07/15 03:24:36;;;;;;;6.87;6.20;;;19.00;1.00;;;;;;5039377;28;20473;-76
2023/07/15 03:27:04;;;;;;;8.10;6.83;;;19.00;1.00;;;;;;5043128;28;20462;-76
2023/07/15 03:29:32;;;;;;;7.50;6.83;;;19.00;1.00;;;;;;5039363;28;20480;-76
2023/07/15 03:31:59;;;;;;;8.30;6.97;;;19.00;1.00;;;;;;5041820;28;20469;-76
2023/07/15 03:34:26;;;;;;;6.90;6.20;;;19.00;1.00;;;;;;5046347;28;20487;-76
2023/07/15 03:36:53;;;;;;;7.13;6.60;;;19.00;1.00;;;;;;5038526;28;20477;-77
2023/07/15 03:39:21;;;;;;;6.90;6.30;;;18.90;1.00;;;;;;5034970;28;21591;-77
2023/07/15 03:41:49;;;;;;;7.83;7.23;;;18.90;1.00;;;;;;5033498;28;20562;-77
2023/07/15 03:44:16;;;;;;;6.70;6.10;;;18.90;1.00;;;;;;5034987;28;20463;-75
2023/07/15 03:46:43;;;;;;;6.73;6.13;;;18.90;1.00;;;;;;5039288;28;20467;-76
2023/07/15 03:49:12;;;;;;;9.20;6.80;;;18.90;1.00;;;;;;5041483;28;22896;-75
2023/07/15 03:51:40;;;;;;;7.20;6.60;;;18.90;1.00;;;;;;5038099;28;20482;-76
2023/07/15 03:54:07;;;;;;;7.70;7.03;;;18.90;1.00;;;;;;5039097;28;20512;-78
2023/07/15 03:56:34;;;;;;;7.40;6.70;;;18.80;1.00;;;;;;5038609;28;20452;-77
2023/07/15 03:59:02;;;;;;;7.60;6.90;;;18.80;1.00;;;;;;5037060;28;20569;-76
2023/07/15 04:01:30;;;;;;;8.93;7.93;;;18.80;1.00;;;;;;5037781;28;20473;-76
2023/07/15 04:03:57;;;;;;;8.33;7.53;;;18.90;1.00;;;;;;5034551;28;20482;-76
2023/07/15 04:06:27;;;;;;;7.80;7.03;;;18.80;1.00;;;;;;5039050;28;20462;-75
2023/07/15 04:08:54;;;;;;;8.20;7.40;;;18.80;1.00;;;;;;5037573;28;20480;-76
2023/07/15 04:11:21;;;;;;;7.27;6.67;;;18.80;1.00;;;;;;5040595;28;20459;-76
2023/07/15 04:13:48;;;;;;;7.80;7.20;;;18.80;1.00;;;;;;5038962;28;20545;-76
2023/07/15 04:16:17;;;;;;;7.20;6.50;;;18.80;1.00;;;;;;5036476;28;21317;-75
2023/07/15 04:18:45;;;;;;;8.03;7.33;;;18.80;1.00;;;;;;5036563;28;20548;-76
2023/07/15 04:21:12;;;;;;;9.03;7.17;;;18.80;1.00;;;;;;5043523;28;20548;-76
2023/07/15 04:23:39;;;;;;;7.73;7.13;;;18.80;1.00;;;;;;5038257;28;20598;-76
2023/07/15 04:26:07;;;;;;;6.97;6.27;;;18.90;1.00;;;;;;5033318;28;20462;-76
2023/07/15 04:28:34;;;;;;;7.80;7.30;;;18.80;1.00;;;;;;5037461;28;20865;-77
2023/07/15 04:31:01;;;;;;;8.40;7.63;;;18.90;1.00;;;;;;5039455;28;20539;-76
2023/07/15 04:33:30;;;;;;;8.47;7.77;;;18.90;1.00;;;;;;5036859;28;20461;-75
2023/07/15 04:35:57;;;;;;;7.53;6.90;;;18.80;1.00;;;;;;5037166;28;20458;-76
2023/07/15 04:38:24;;;;;;;9.17;8.20;;;18.90;1.00;;;;;;5037144;28;20576;-75
2023/07/15 04:40:51;;;;;;;9.60;8.70;;;18.90;1.00;;;;;;5037902;28;20482;-76
2023/07/15 04:43:21;;;;;;;7.93;7.33;;;18.90;1.00;;;;;;5042039;28;20553;-76
2023/07/15 04:45:48;;;;;;;7.97;7.37;;;19.00;1.00;;;;;;5035961;28;20886;-77
2023/07/15 04:48:15;;;;;;;10.30;9.00;;;19.00;1.00;;;;;;5042656;28;20489;-76
2023/07/15 04:50:44;;;;;;;7.97;7.27;;;19.10;1.00;;;;;;5042027;28;20474;-77
2023/07/15 04:53:12;;;;;;;8.50;7.80;;;19.10;1.00;;;;;;5043454;28;20468;-76
2023/07/15 04:55:39;;;;;;;7.47;6.87;;;19.20;1.00;;;;;;5040419;28;20863;-75
2023/07/15 04:58:06;;;;;;;7.37;6.80;;;19.10;1.00;;;;;;5042632;28;20560;-75
2023/07/15 05:00:33;;;;;;;7.13;6.50;;;19.20;1.00;;;;;;5034816;28;20479;-75
2023/07/15 05:03:01;;;;;;;7.40;6.80;;;19.30;1.00;;;;;;5038341;28;20455;-74
2023/07/15 05:05:29;;;;;;;8.20;7.30;;;19.40;1.00;;;;;;5036370;28;20898;-74
2023/07/15 05:08:03;;;;;;;8.63;7.13;;;19.50;1.00;;;;;;5036509;28;20579;-75
2023/07/15 05:10:30;;;;;;;8.77;8.07;;;19.60;1.00;;;;;;5040096;28;20486;-75
2023/07/15 05:12:57;;;;;;;9.23;8.37;;;19.60;1.00;;;;;;5039271;28;20491;-74
2023/07/15 05:15:24;;;;;;;8.00;7.20;;;19.70;1.00;;;;;;5035055;28;20456;-75
2023/07/15 05:17:51;;;;;;;7.50;6.90;;;19.80;1.00;;;;;;5039408;28;20469;-76
2023/07/15 05:20:19;;;;;;;8.17;7.57;;;19.90;1.00;;;;;;5038594;28;20676;-78
2023/07/15 05:22:48;;;;;;;7.20;6.57;;;20.00;1.00;;;;;;5038664;28;20878;-77
2023/07/15 05:25:17;;;;;;;9.90;7.03;;;20.00;1.00;;;;;;5037777;28;20547;-76
2023/07/15 05:27:44;;;;;;;7.73;7.13;;;20.10;1.00;;;;;;5040396;28;20499;-77
2023/07/15 05:30:12;;;;;;;7.80;7.10;;;20.20;1.00;;;;;;5040567;28;20470;-76
2023/07/15 05:32:40;;;;;;;10.97;9.13;;;20.30;1.00;;;;;;5042903;28;20975;-76
2023/07/15 05:35:07;;;;;;;7.50;6.90;;;20.40;1.00;;;;;;5040490;28;20485;-75
2023/07/15 05:37:34;;;;;;;8.13;7.40;;;20.50;1.00;;;;;;5044180;28;20912;-76
2023/07/15 05:40:02;;;;;;;6.87;6.30;;;20.50;1.00;;;;;;5029223;28;20467;-76
2023/07/15 05:42:30;;;;;;;7.80;7.20;;;20.60;1.00;;;;;;5043543;28;20476;-76
2023/07/15 05:44:58;;;;;;;7.20;6.70;;;20.70;1.00;;;;;;5038704;28;20533;-76
2023/07/15 05:47:25;;;;;;;7.40;6.70;;;20.90;1.00;;;;;;5046733;28;20479;-76
2023/07/15 05:49:52;;;;;;;7.87;7.17;;;20.90;1.00;;;;;;5043209;28;20534;-76
2023/07/15 05:52:19;;;;;;;6.87;6.27;;;21.00;1.00;;;;;;5045752;28;20477;-76
2023/07/15 05:54:46;;;;;;;7.40;6.90;;;21.10;1.00;;;;;;5042094;28;20532;-75
2023/07/15 05:57:13;;;;;;;7.50;6.80;;;21.20;1.00;;;;;;5039964;28;20497;-76
2023/07/15 05:59:41;;;;;;;7.33;6.63;;;21.20;1.00;;;;;;5042815;28;20469;-75
2023/07/15 06:02:08;;;;;;;7.20;6.50;;;21.40;1.00;;;;;;5037484;28;20979;-76
2023/07/15 06:04:35;;;;;;;8.73;6.43;;;21.40;1.00;;;;;;5043183;28;20463;-76
2023/07/15 06:07:02;;;;;;;6.97;6.33;;;21.40;1.00;;;;;;5046176;28;21063;-76
2023/07/15 06:09:29;;;;;;;8.50;7.17;;;21.50;1.00;;;;;;5040853;28;20498;-74
2023/07/15 06:11:56;;;;;;;6.60;6.00;;;21.70;1.00;;;;;;5045506;28;20550;-74
2023/07/15 06:14:26;;;;;;;6.40;5.90;;;21.90;1.00;;;;;;5046783;28;21059;-77
2023/07/15 06:16:57;;;;;;;8.03;6.60;;;22.10;1.00;;;;;;5042665;28;20478;-75
2023/07/15 06:19:24;;;;;;;7.70;7.00;;;22.20;1.00;;;;;;5036760;28;20641;-75
2023/07/15 06:21:51;;;;;;;5.63;5.30;;;22.30;1.00;;;;;;5043522;28;20969;-74
2023/07/15 06:24:18;;;;;;;7.50;6.57;;;22.40;1.00;;;;;;5042175;28;21007;-80
2023/07/15 06:26:45;;;;;;;7.30;6.60;;;22.60;1.00;;;;;;5045857;28;20911;-80
2023/07/15 06:29:14;;;;;;;7.17;6.50;;;22.60;1.00;;;;;;5047669;28;20910;-79
2023/07/15 06:31:40;;;;;;;6.53;6.03;;;22.80;1.00;;;;;;5039668;28;20455;-75
2023/07/15 06:34:09;;;;;;;5.90;5.50;;;22.90;1.00;;;;;;5042871;28;20559;-73
2023/07/15 06:36:36;;;;;;;6.50;5.90;;;23.00;1.00;;;;;;5034874;28;20578;-75
2023/07/15 06:39:04;;;;;;;6.00;5.60;;;23.00;1.00;;;;;;5038030;28;20464;-74
2023/07/15 06:41:31;;;;;;;6.40;5.80;;;23.00;1.00;;;;;;5033799;28;20488;-76
2023/07/15 06:43:58;;;;;;;7.33;5.90;;;22.90;1.00;;;;;;5038457;28;20518;-75
2023/07/15 06:46:25;;;;;;;6.87;6.27;;;23.00;1.00;;;;;;5024297;28;20530;-76
2023/07/15 06:48:53;;;;;;;6.60;6.03;;;23.00;1.00;;;;;;5042976;28;20542;-76
2023/07/15 06:51:23;;;;;;;7.73;5.60;;;23.00;1.00;;;;;;5044199;28;20525;-74
2023/07/15 06:53:50;;;;;;;5.93;5.43;;;23.20;1.00;;;;;;5039978;28;20459;-78
2023/07/15 06:56:17;;;;;;;6.63;6.13;;;23.30;1.00;;;;;;5047130;28;20522;-78
2023/07/15 06:58:44;;;;;;;6.67;6.17;;;23.40;1.00;;;;;;5022798;28;20450;-78
2023/07/15 07:01:11;;;;;;;6.43;5.77;;;23.60;1.00;;;;;;5039241;28;20468;-73
2023/07/15 07:03:38;;;;;;;5.93;5.43;;;23.70;1.00;;;;;;5023864;28;20528;-75
2023/07/15 07:06:05;;;;;;;6.37;5.80;;;23.80;1.00;;;;;;5027797;28;20584;-75
2023/07/15 07:08:34;;;;;;;6.73;6.17;;;23.90;1.00;;;;;;5040464;28;20476;-74
2023/07/15 07:11:01;;;;;;;6.30;5.70;;;24.00;1.00;;;;;;5043092;28;20854;-77
2023/07/15 07:13:28;;;;;;;7.00;6.03;;;24.20;1.00;;;;;;5043794;28;20483;-77
2023/07/15 07:15:58;;;;;;;6.43;5.97;;;24.20;1.00;;;;;;5038085;28;20468;-77
2023/07/15 07:18:25;;;;;;;6.43;5.70;;;24.20;1.00;;;;;;5039630;28;21044;-78
2023/07/15 07:20:58;;;;;;;5.40;5.03;;;24.40;1.00;;;;;;5043207;28;20461;-77
2023/07/15 07:23:25;;;;;;;6.43;5.23;;;24.50;1.00;;;;;;5042779;28;20497;-78
2023/07/15 07:25:54;;;;;;;6.30;5.70;;;24.70;1.00;;;;;;5039743;28;20554;-79
2023/07/15 07:28:23;;;;;;;6.53;5.60;;;24.80;1.00;;;;;;5043509;28;20483;-78
2023/07/15 07:30:50;;;;;;;7.90;5.70;;;24.90;1.00;;;;;;5039682;28;21952;-77
2023/07/15 07:33:18;;;;;;;6.13;5.53;;;25.00;1.00;;;;;;5020828;28;20471;-78
2023/07/15 07:35:47;;;;;;;6.70;5.47;;;25.10;1.00;;;;;;5046411;28;20468;-77
2023/07/15 07:38:14;;;;;;;5.50;5.00;;;25.20;1.00;;;;;;5045205;28;20558;-78
2023/07/15 07:40:47;;;;;;;8.57;6.10;;;25.30;1.00;;;;;;5040506;28;20536;-77
2023/07/15 07:43:21;;;;;;;7.00;6.00;;;25.50;1.00;;;;;;5034946;28;21021;-77
2023/07/15 07:45:49;;;;;;;5.80;5.40;;;25.70;1.00;;;;;;5040231;28;20467;-79
2023/07/15 07:48:17;;;;;;;5.80;5.30;;;25.90;1.00;;;;;;5040295;28;21365;-78
2023/07/15 07:50:45;;;;;;;5.90;5.40;;;25.90;1.00;;;;;;5040188;28;20465;-78
2023/07/15 07:53:12;;;;;;;7.93;5.00;;;26.00;1.00;;;;;;5038350;28;20473;-77
2023/07/15 07:55:40;;;;;;;5.43;5.00;;;26.10;1.00;;;;;;5037364;28;20612;-78
2023/07/15 07:58:07;;;;;;;5.87;5.33;;;26.20;1.00;;;;;;5035372;28;20467;-78
2023/07/15 08:00:38;;;;;;;5.70;5.20;;;26.40;1.00;;;;;;5039572;28;20594;-78
2023/07/15 08:03:06;;;;;;;6.13;5.10;;;26.70;1.00;;;;;;5032991;28;20432;-78
2023/07/15 08:05:33;;;;;;;5.70;5.17;;;26.90;1.00;;;;;;5038393;28;20506;-79
2023/07/15 08:08:01;;;;;;;5.50;4.77;;;27.00;1.00;;;;;;5035872;28;20465;-79
2023/07/15 08:10:30;;;;;;;5.27;4.73;;;27.00;1.00;;;;;;5036558;28;20559;-78
2023/07/15 08:12:57;;;;;;;5.80;4.70;;;27.20;1.00;;;;;;5034733;28;21054;-79
2023/07/15 08:15:25;;;;;;;4.83;4.43;;;27.40;1.00;;;;;;5025089;28;21727;-78
2023/07/15 08:17:54;;;;;;;5.17;4.70;;;27.70;1.00;;;;;;5032658;28;20499;-78
2023/07/15 08:20:21;;;;;;;5.77;5.27;;;27.90;1.00;;;;;;5039328;28;20974;-78
2023/07/15 08:22:49;;;;;;;5.27;4.87;;;28.10;1.00;;;;;;5039115;28;20837;-77
2023/07/15 08:25:16;;;;;;;5.33;4.83;;;28.20;1.00;;;;;;5049812;28;20579;-76
2023/07/15 08:27:47;;;;;;;4.80;4.50;;;28.20;1.00;;;;;;5035645;28;20560;-77
2023/07/15 08:30:14;;;;;;;5.63;4.80;;;28.20;1.00;;;;;;5035564;28;20626;-75
2023/07/15 08:32:41;;;;;;;6.40;4.87;;;28.50;1.00;;;;;;5037851;28;20524;-76
2023/07/15 08:35:11;;;;;;;4.93;4.43;;;28.60;1.00;;;;;;5043089;28;20941;-78
2023/07/15 08:37:38;;;;;;;4.80;4.27;;;28.70;1.00;;;;;;5039915;28;20861;-76
2023/07/15 08:40:11;;;;;;;4.50;4.10;;;28.80;1.00;;;;;;5040481;28;20423;-79
2023/07/15 08:42:38;;;;;;;4.80;4.50;;;28.90;1.00;;;;;;5037573;28;20446;-78
2023/07/15 08:45:07;;;;;;;4.30;4.00;;;29.00;1.00;;;;;;5044939;28;20484;-77
2023/07/15 08:47:34;;;;;;;5.73;4.10;;;29.10;1.00;;;;;;5040544;28;21993;-77
2023/07/15 08:50:05;;;;;;;4.23;3.87;;;29.20;1.00;;;;;;5031131;28;20427;-78
2023/07/15 08:52:36;;;;;;;7.00;4.27;;;29.20;1.00;;;;;;5042397;28;20466;-78
2023/07/15 08:55:04;;;;;;;4.37;3.97;;;29.30;1.00;;;;;;5043577;28;20495;-78
2023/07/15 08:57:33;;;;;;;4.13;3.83;;;29.50;1.00;;;;;;5047360;28;20468;-78
2023/07/15 09:00:04;;;;;;;4.30;3.90;;;29.70;1.00;;;;;;5047537;28;20520;-77
2023/07/15 09:02:34;;;;;;;4.77;4.00;;;29.90;1.00;;;;;;5041511;28;20474;-77
2023/07/15 09:05:01;;;;;;;7.40;4.27;;;30.00;1.00;;;;;;5044756;28;20480;-78
2023/07/15 09:07:32;;;;;;;4.10;3.70;;;30.10;1.00;;;;;;5044585;28;20905;-77
2023/07/15 09:10:06;;;;;;;5.13;3.63;;;30.10;1.00;;;;;;5043667;28;20626;-77
2023/07/15 09:12:34;;;;;;;4.50;4.10;;;30.20;1.00;;;;;;5042783;28;20461;-76
2023/07/15 09:15:01;;;;;;;4.07;3.77;;;30.30;1.00;;;;;;5045052;28;20848;-76
2023/07/15 09:17:28;;;;;;;3.40;3.20;;;30.40;1.00;;;;;;5042006;28;20502;-76
2023/07/15 09:19:55;;;;;;;4.33;3.90;;;30.60;1.00;;;;;;5041834;28;21139;-77
2023/07/15 09:22:26;;;;;;;4.33;3.93;;;30.70;1.00;;;;;;5043546;28;20555;-78
2023/07/15 09:24:53;;;;;;;4.00;3.70;;;31.00;1.00;;;;;;5043319;28;20463;-76
2023/07/15 09:27:26;;;;;;;3.80;3.60;;;31.20;1.00;;;;;;5044124;28;20634;-76
2023/07/15 09:29:53;;;;;;;3.83;3.43;;;31.30;1.00;;;;;;5040232;28;21007;-76
2023/07/15 09:32:23;;;;;;;5.00;4.10;;;31.40;1.00;;;;;;5045377;28;20536;-77
2023/07/15 09:34:52;;;;;;;3.27;3.00;;;31.50;1.00;;;;;;5044171;28;20439;-80
2023/07/15 09:37:28;;;;;;;5.17;3.70;;;31.70;1.00;;;;;;5041683;28;20464;-77
2023/07/15 09:39:57;;;;;;;6.53;3.90;;;31.80;1.00;;;;;;5045529;28;20452;-77
2023/07/15 09:42:26;;;;;;;3.83;3.43;;;32.40;1.00;;;;;;5045148;28;20480;-77
2023/07/15 09:44:54;;;;;;;5.20;3.97;;;33.40;1.00;;;;;;5047793;28;20460;-80
2023/07/15 09:47:21;;;;;;;3.97;3.67;;;35.20;1.00;;;;;;5046045;28;20456;-77
2023/07/15 09:49:49;;;;;;;3.70;3.40;;;36.70;1.00;;;;;;5046619;28;20464;-77
2023/07/15 09:52:16;;;;;;;6.50;4.00;;;36.80;1.00;;;;;;5042048;28;20515;-77
2023/07/15 09:54:48;;;;;;;4.13;3.53;;;37.60;1.00;;;;;;5042751;28;20453;-76
2023/07/15 09:57:17;;;;;;;3.97;3.60;;;37.80;1.00;;;;;;5041582;28;20464;-76
2023/07/15 09:59:47;;;;;;;4.07;3.57;;;38.30;1.00;;;;;;5038248;28;20499;-75
2023/07/15 10:02:28;;;;;;;3.67;3.30;;;38.60;1.00;;;;;;5043604;28;20468;-75
2023/07/15 10:05:03;;;;;;;4.17;3.10;;;39.40;1.00;;;;;;5043596;28;20437;-75
2023/07/15 10:07:31;;;;;;;3.90;2.90;;;40.30;1.00;;;;;;5040204;28;20549;-75
2023/07/15 10:10:00;;;;;;;4.10;3.70;;;40.70;1.00;;;;;;5040381;28;20460;-75
2023/07/15 10:12:29;;;;;;;3.77;3.47;;;40.40;1.00;;;;;;5045146;28;20492;-76
2023/07/15 10:14:58;;;;;;;3.53;3.30;;;40.70;1.00;;;;;;5040135;28;20492;-76
2023/07/15 10:17:34;;;;;;;3.50;3.20;;;40.90;1.00;;;;;;5041917;28;20460;-77
2023/07/15 10:20:04;;;;;;;4.17;3.17;;;41.00;1.00;;;;;;5037564;28;20548;-76
2023/07/15 10:22:35;;;;;;;4.70;4.30;;;40.90;1.00;;;;;;5039666;28;20453;-77
2023/07/15 10:25:04;;;;;;;3.63;3.30;;;40.50;1.00;;;;;;5046006;28;20475;-77
2023/07/15 10:27:33;;;;;;;5.03;3.23;;;40.60;1.00;;;;;;5039402;28;20467;-75
2023/07/15 10:30:19;;;;;;;3.63;3.33;;;40.10;1.00;;;;;;5042765;28;20851;-74
2023/07/15 10:33:12;;;;;;;4.23;2.97;;;41.30;1.00;;;;;;5042365;28;20531;-75
2023/07/15 10:35:53;;;;;;;4.53;3.10;;;42.40;1.00;;;;;;5041864;28;20604;-76
2023/07/15 10:38:28;;;;;;;3.70;3.30;;;42.30;1.00;;;;;;5042716;28;20459;-76
2023/07/15 10:41:01;;;;;;;3.43;3.07;;;42.60;1.00;;;;;;5044433;28;20425;-76
2023/07/15 10:43:40;;;;;;;4.90;4.40;;;43.00;1.00;;;;;;5045826;28;20465;-75
2023/07/15 10:46:10;;;;;;;4.33;3.50;;;43.70;1.00;;;;;;5044198;28;20465;-76
2023/07/15 10:48:38;;;;;;;3.17;2.97;;;44.40;1.00;;;;;;5042646;28;20538;-75
2023/07/15 10:51:07;;;;;;;4.60;3.37;;;44.40;1.00;;;;;;5042851;28;20522;-76
2023/07/15 10:53:34;;;;;;;4.87;3.10;;;44.90;1.00;;;;;;5045950;28;21101;-76
2023/07/15 10:56:03;;;;;;;3.37;3.17;;;45.10;1.00;;;;;;5041711;28;20894;-76
2023/07/15 10:58:34;;;;;;;2.93;2.70;;;45.30;1.00;;;;;;5038128;28;20994;-76
2023/07/15 11:01:03;;;;;;;3.10;2.90;;;44.80;1.00;;;;;;5041240;28;20457;-76
2023/07/15 11:03:33;;;;;;;3.20;2.90;;;44.30;1.00;;;;;;5043985;28;20534;-75
2023/07/15 11:06:01;;;;;;;2.90;2.70;;;44.50;1.00;;;;;;5046720;28;20501;-76
2023/07/15 11:08:32;;;;;;;4.10;3.80;;;45.10;1.00;;;;;;5045280;28;21035;-76
2023/07/15 11:11:02;;;;;;;3.57;3.27;;;45.70;1.00;;;;;;5046687;28;20453;-76
2023/07/15 11:13:30;;;;;;;3.23;3.03;;;45.50;1.00;;;;;;5044365;28;20461;-76
2023/07/15 11:15:58;;;;;;;3.87;3.57;;;45.20;1.00;;;;;;5045258;28;20484;-76
2023/07/15 11:18:27;;;;;;;5.30;3.53;;;45.30;1.00;;;;;;5041714;28;20479;-76
2023/07/15 11:20:57;;;;;;;4.53;4.00;;;45.50;1.00;;;;;;5043289;28;20456;-76
2023/07/15 11:23:25;;;;;;;3.90;3.47;;;46.20;1.00;;;;;;5045140;28;20495;-76
2023/07/15 11:25:52;;;;;;;3.80;3.50;;;46.30;1.00;;;;;;5049152;28;20463;-75
2023/07/15 11:28:19;;;;;;;3.60;3.30;;;46.70;1.00;;;;;;5044620;28;20590;-75
2023/07/15 11:30:48;;;;;;;3.73;3.43;;;46.80;1.00;;;;;;5046896;28;20471;-75
2023/07/15 11:33:15;;;;;;;3.80;3.30;;;46.70;1.00;;;;;;5046780;28;20457;-76
2023/07/15 11:35:44;;;;;;;3.50;3.20;;;46.70;1.00;;;;;;5047286;28;20468;-76
2023/07/15 11:38:15;;;;;;;3.07;2.87;;;46.30;1.00;;;;;;5044211;28;20471;-75
2023/07/15 11:40:52;;;;;;;3.87;3.00;;;45.70;1.00;;;;;;5043272;28;20620;-75
2023/07/15 11:43:21;;;;;;;3.27;3.07;;;45.50;1.00;;;;;;5047615;28;20443;-76
2023/07/15 11:45:48;;;;;;;4.00;3.70;;;45.30;1.00;;;;;;5043207;28;20959;-76
2023/07/15 11:48:21;;;;;;;3.60;3.30;;;46.20;1.00;;;;;;5043913;28;20476;-76
2023/07/15 11:50:48;;;;;;;3.27;3.00;;;46.80;1.00;;;;;;5044349;28;20972;-76
2023/07/15 11:53:32;;;;;;;2.70;2.50;;;47.40;1.00;;;;;;5046743;28;20544;-75
2023/07/15 11:56:00;;;;;;;3.00;2.70;;;47.70;1.00;;;;;;5047951;28;20478;-77
2023/07/15 11:58:49;;;;;;;3.10;2.90;;;47.90;1.00;;;;;;5040599;28;20460;-76
2023/07/15 12:01:18;;;;;;;7.20;2.83;;;48.20;1.00;;;;;;5030392;28;20495;-76
2023/07/15 12:03:45;;;;;;;2.53;2.13;;;48.40;1.00;;;;;;5045939;28;20456;-76
2023/07/15 12:06:17;;;;;;;2.80;2.30;;;48.40;1.00;;;;;;5047817;28;20472;-75
2023/07/15 12:09:00;;;;;;;3.00;2.27;;;48.60;1.00;;;;;;5031098;28;20530;-75
2023/07/15 12:11:28;;;;;;;2.67;2.43;;;47.40;1.00;;;;;;5044074;28;20472;-75
2023/07/15 12:13:57;;;;;;;2.93;2.73;;;47.80;1.00;;;;;;5044895;28;20444;-77
2023/07/15 12:16:25;;;;;;;2.37;2.17;;;48.10;1.00;;;;;;5041117;28;20476;-76
2023/07/15 12:18:54;;;;;;;2.30;2.20;;;48.40;1.00;;;;;;5046860;28;21344;-76
2023/07/15 12:21:21;;;;;;;2.30;1.93;;;48.80;1.00;;;;;;5045196;28;20454;-76
2023/07/15 12:23:50;;;;;;;3.00;2.70;;;48.90;1.00;;;;;;5044950;28;20842;-76
2023/07/15 12:26:18;;;;;;;2.07;1.97;;;49.20;1.00;;;;;;5044119;28;20440;-78
2023/07/15 12:28:46;;;;;;;2.17;2.07;;;49.30;1.00;;;;;;5046215;28;20522;-76
2023/07/15 12:31:13;;;;;;;3.40;3.10;;;49.30;1.00;;;;;;5042902;28;20540;-75
2023/07/15 12:33:41;;;;;;;2.10;1.80;;;49.40;1.00;;;;;;5043265;28;20473;-76
2023/07/15 12:36:12;;;;;;;2.17;2.07;;;49.30;1.00;;;;;;5040068;28;20526;-74
2023/07/15 12:38:40;;;;;;;2.07;1.97;;;48.40;1.00;;;;;;5025654;28;20464;-75
2023/07/15 12:41:09;;;;;;;2.60;2.40;;;47.90;1.00;;;;;;5042886;28;20471;-76
2023/07/15 12:43:37;;;;;;;2.67;2.50;;;48.10;1.00;;;;;;5041053;28;20468;-74
2023/07/15 12:46:04;;;;;;;2.33;2.17;;;48.40;1.00;;;;;;5040412;28;21031;-76
2023/07/15 12:48:32;;;;;;;5.43;2.53;;;49.10;1.00;;;;;;5040001;28;21411;-76
2023/07/15 12:51:03;;;;;;;4.97;2.70;;;49.80;1.00;;;;;;5043513;28;20459;-75
2023/07/15 12:53:30;;;;;;;2.37;2.17;;;49.40;1.00;;;;;;5039676;28;20563;-76
2023/07/15 12:55:57;;;;;;;2.83;1.93;;;49.40;1.00;;;;;;5039425;28;20571;-75
2023/07/15 12:58:25;;;;;;;2.30;2.10;;;50.00;1.00;;;;;;5033897;28;20467;-76
2023/07/15 13:00:56;;;;;;;2.43;2.23;;;49.80;1.00;;;;;;5043357;28;20543;-76
2023/07/15 13:03:23;;;;;;;2.17;2.07;;;49.40;1.00;;;;;;5042182;28;20511;-76
2023/07/15 13:05:50;;;;;;;4.10;2.97;;;49.20;1.00;;;;;;5040786;28;20905;-76
2023/07/15 13:08:18;;;;;;;2.57;2.37;;;49.50;1.00;;;;;;5042534;28;21024;-75